createdAt,value
2024-04-07T00:02:17.454Z,67.77
2024-04-07T00:04:49.120Z,67.85
2024-04-07T00:07:19.428Z,67.95
2024-04-07T00:09:52.008Z,68.07
2024-04-07T00:12:23.058Z,68.17
2024-04-07T00:14:54.704Z,68.11
2024-04-07T00:17:25.744Z,68.17
2024-04-07T00:19:57.910Z,68.19
2024-04-07T00:22:29.047Z,68.19
2024-04-07T00:25:00.710Z,68.19
2024-04-07T00:27:31.137Z,68.07
2024-04-07T00:30:02.997Z,68.17
2024-04-07T00:32:33.469Z,68.19
2024-04-07T00:35:05.424Z,68.37
2024-04-07T00:37:35.912Z,68.57
2024-04-07T00:40:08.857Z,68.54
2024-04-07T00:42:39.225Z,68.48
2024-04-07T00:45:11.084Z,68.35
2024-04-07T00:47:41.508Z,68.45
2024-04-07T00:50:13.273Z,68.57
2024-04-07T00:52:43.710Z,68.62
2024-04-07T00:55:16.728Z,68.69
2024-04-07T00:57:48.534Z,68.75
2024-04-07T01:00:20.185Z,68.67
2024-04-07T01:02:50.517Z,68.72
2024-04-07T01:05:22.584Z,68.71
2024-04-07T01:07:52.799Z,68.74
2024-04-07T01:10:24.871Z,68.51
2024-04-07T01:12:55.303Z,68.39
2024-04-07T01:15:26.943Z,68.23
2024-04-07T01:17:58.452Z,68.34
2024-04-07T01:20:30.354Z,68.25
2024-04-07T01:23:01.410Z,68.27
2024-04-07T01:25:33.155Z,68.24
2024-04-07T01:28:05.902Z,68.35
2024-04-07T01:30:37.897Z,68.59
2024-04-07T01:33:08.328Z,68.62
2024-04-07T01:35:39.979Z,68.61
2024-04-07T01:38:10.412Z,68.49
2024-04-07T01:40:42.071Z,68.27
2024-04-07T01:43:12.493Z,68.28
2024-04-07T01:45:44.351Z,68.55
2024-04-07T01:48:14.771Z,68.66
2024-04-07T01:50:49.019Z,68.71
2024-04-07T01:53:19.521Z,68.77
2024-04-07T01:55:51.273Z,68.83
2024-04-07T01:58:22.726Z,68.72
2024-04-07T02:00:56.016Z,68.68
2024-04-07T02:03:26.346Z,68.64
2024-04-07T02:05:58.197Z,68.55
2024-04-07T02:08:28.902Z,68.41
2024-04-07T02:11:00.529Z,68.49
2024-04-07T02:13:31.223Z,68.59
2024-04-07T02:16:03.086Z,68.62
2024-04-07T02:18:33.505Z,68.62
2024-04-07T02:21:05.169Z,68.97
2024-04-07T02:23:35.690Z,69.20
2024-04-07T02:26:08.779Z,69.39
2024-04-07T02:28:39.420Z,69.41
2024-04-07T02:31:11.176Z,69.14
2024-04-07T02:33:41.696Z,69.01
2024-04-07T02:36:16.530Z,68.82
2024-04-07T02:38:49.414Z,68.86
2024-04-07T02:41:19.836Z,68.67
2024-04-07T02:43:51.530Z,68.47
2024-04-07T02:46:40.765Z,68.21
2024-04-07T02:49:12.621Z,68.23
2024-04-07T02:51:43.052Z,68.50
2024-04-07T02:54:15.110Z,68.74
2024-04-07T02:56:45.440Z,68.94
2024-04-07T02:59:17.299Z,68.98
2024-04-07T03:01:47.978Z,68.95
2024-04-07T03:04:20.740Z,68.90
2024-04-07T03:06:52.885Z,68.94
2024-04-07T03:09:24.631Z,69.06
2024-04-07T03:11:55.060Z,69.08
2024-04-07T03:14:26.824Z,69.30
2024-04-07T03:17:01.319Z,69.58
2024-04-07T03:19:33.513Z,69.95
2024-04-07T03:22:04.308Z,70.03
2024-04-07T03:24:35.992Z,70.60
2024-04-07T03:27:06.732Z,70.67
2024-04-07T03:29:38.798Z,70.67
2024-04-07T03:32:09.231Z,70.56
2024-04-07T03:34:40.873Z,70.51
2024-04-07T03:37:11.704Z,70.35
2024-04-07T03:39:43.374Z,70.19
2024-04-07T03:42:13.697Z,70.14
2024-04-07T03:44:45.451Z,70.22
2024-04-07T03:47:16.283Z,70.23
2024-04-07T03:49:48.337Z,69.99
2024-04-07T03:52:19.899Z,69.71
2024-04-07T03:54:52.476Z,69.65
2024-04-07T03:57:23.520Z,69.72
2024-04-07T03:59:55.480Z,69.97
2024-04-07T04:02:32.427Z,70.00
2024-04-07T04:05:04.654Z,69.90
2024-04-07T04:07:35.153Z,69.93
2024-04-07T04:10:08.493Z,69.94
2024-04-07T04:12:39.074Z,69.78
2024-04-07T04:15:10.934Z,69.44
2024-04-07T04:17:41.162Z,69.66
2024-04-07T04:20:13.227Z,69.82
2024-04-07T04:22:46.408Z,69.67
2024-04-07T04:25:18.589Z,70.02
2024-04-07T04:27:49.007Z,70.41
2024-04-07T04:30:20.667Z,70.48
2024-04-07T04:32:51.092Z,70.58
2024-04-07T04:35:22.748Z,70.23
2024-04-07T04:37:53.324Z,70.41
2024-04-07T04:40:25.651Z,70.29
2024-04-07T04:42:55.968Z,70.22
2024-04-07T04:45:27.727Z,70.29
2024-04-07T04:47:57.951Z,70.10
2024-04-07T04:50:29.812Z,70.02
2024-04-07T04:53:00.249Z,69.89
2024-04-07T04:55:34.857Z,69.59
2024-04-07T04:58:07.945Z,69.32
2024-04-07T05:00:38.585Z,69.01
2024-04-07T05:03:10.234Z,68.67
2024-04-07T05:05:41.171Z,68.24
2024-04-07T05:08:12.932Z,67.99
2024-04-07T05:10:43.683Z,67.65
2024-04-07T05:13:15.424Z,67.45
2024-04-07T05:15:51.344Z,67.25
2024-04-07T05:18:22.935Z,67.17
2024-04-07T05:20:54.344Z,67.02
2024-04-07T05:23:26.035Z,66.80
2024-04-07T05:25:56.490Z,66.22
2024-04-07T05:28:28.706Z,64.56
2024-04-07T05:31:02.022Z,61.20
2024-04-07T05:33:34.409Z,57.51
2024-04-07T05:36:06.626Z,54.57
2024-04-07T05:38:42.415Z,50.42
2024-04-07T05:41:14.172Z,46.33
2024-04-07T05:43:45.524Z,42.82
2024-04-07T05:46:17.478Z,40.30
2024-04-07T05:48:49.609Z,37.89
2024-04-07T05:51:21.514Z,35.82
2024-04-07T05:53:51.837Z,35.06
2024-04-07T05:56:23.796Z,34.43
2024-04-07T05:58:54.158Z,33.93
2024-04-07T06:01:25.983Z,33.35
2024-04-07T06:03:56.406Z,31.82
2024-04-07T06:06:28.060Z,31.57
2024-04-07T06:08:58.799Z,31.05
2024-04-07T06:11:30.865Z,31.57
2024-04-07T06:14:01.387Z,32.27
2024-04-07T06:16:33.037Z,32.00
2024-04-07T06:19:03.364Z,31.59
2024-04-07T06:21:35.124Z,31.39
2024-04-07T06:24:06.063Z,30.68
2024-04-07T06:26:37.819Z,30.17
2024-04-07T06:29:08.245Z,30.12
2024-04-07T06:31:40.202Z,29.63
2024-04-07T06:34:10.631Z,29.77
2024-04-07T06:36:42.491Z,29.70
2024-04-07T06:39:12.915Z,29.53
2024-04-07T06:41:44.576Z,29.83
2024-04-07T06:44:14.899Z,29.26
2024-04-07T06:46:46.562Z,29.57
2024-04-07T06:49:17.396Z,30.42
2024-04-07T06:51:49.038Z,31.11
2024-04-07T06:54:19.471Z,32.30
2024-04-07T06:56:51.138Z,32.81
2024-04-07T06:59:21.656Z,33.76
2024-04-07T07:01:53.327Z,35.20
2024-04-07T07:04:24.046Z,36.27
2024-04-07T07:06:55.806Z,37.25
2024-04-07T07:09:28.458Z,37.65
2024-04-07T07:12:00.646Z,38.30
2024-04-07T07:14:31.180Z,38.32
2024-04-07T07:17:02.826Z,39.13
2024-04-07T07:19:33.267Z,39.60
2024-04-07T07:22:05.288Z,39.98
2024-04-07T07:24:35.948Z,40.25
2024-04-07T07:27:07.712Z,40.97
2024-04-07T07:29:38.134Z,41.35
2024-04-07T07:32:11.759Z,41.51
2024-04-07T07:34:42.685Z,40.92
2024-04-07T07:37:14.489Z,41.11
2024-04-07T07:39:45.163Z,40.95
2024-04-07T07:42:16.814Z,41.27
2024-04-07T07:44:47.446Z,41.68
2024-04-07T07:47:19.202Z,42.31
2024-04-07T07:49:49.938Z,41.94
2024-04-07T07:52:22.008Z,42.21
2024-04-07T07:54:52.434Z,42.47
2024-04-07T07:57:24.089Z,42.92
2024-04-07T07:59:57.520Z,43.58
2024-04-07T08:02:31.613Z,43.83
2024-04-07T08:05:02.063Z,44.08
2024-04-07T08:07:34.090Z,43.67
2024-04-07T08:10:05.131Z,44.09
2024-04-07T08:12:39.442Z,43.78
2024-04-07T08:15:12.732Z,43.62
2024-04-07T08:17:43.172Z,43.34
2024-04-07T08:20:14.810Z,43.56
2024-04-07T08:22:45.959Z,43.03
2024-04-07T08:25:17.719Z,43.25
2024-04-07T08:27:48.052Z,43.57
2024-04-07T08:30:20.113Z,43.62
2024-04-07T08:32:50.554Z,44.09
2024-04-07T08:35:22.295Z,43.49
2024-04-07T08:37:53.160Z,43.28
2024-04-07T08:40:25.985Z,43.12
2024-04-07T08:42:56.443Z,43.13
2024-04-07T08:45:28.208Z,42.94
2024-04-07T08:47:58.518Z,42.60
2024-04-07T08:50:30.694Z,42.44
2024-04-07T08:53:01.099Z,42.66
2024-04-07T08:55:32.976Z,42.47
2024-04-07T08:58:04.733Z,41.88
2024-04-07T09:00:37.865Z,41.93
2024-04-07T09:03:08.747Z,42.40
2024-04-07T09:05:40.926Z,42.67
2024-04-07T09:08:11.349Z,42.18
2024-04-07T09:10:43.131Z,41.72
2024-04-07T09:13:13.746Z,41.59
2024-04-07T09:15:45.493Z,40.77
2024-04-07T09:18:15.855Z,41.16
2024-04-07T09:20:48.200Z,40.77
2024-04-07T09:23:18.514Z,40.11
2024-04-07T09:25:54.569Z,40.01
2024-04-07T09:28:26.330Z,39.12
2024-04-07T09:30:56.751Z,39.58
2024-04-07T09:33:31.176Z,39.78
2024-04-07T09:36:04.578Z,39.81
2024-04-07T09:38:34.893Z,39.72
2024-04-07T09:41:06.651Z,39.76
2024-04-07T09:43:37.080Z,39.59
2024-04-07T09:46:09.141Z,39.62
2024-04-07T09:48:39.881Z,39.04
2024-04-07T09:51:12.915Z,39.37
2024-04-07T09:53:49.241Z,39.17
2024-04-07T09:56:23.987Z,39.27
2024-04-07T09:58:56.847Z,38.52
2024-04-07T10:01:27.679Z,39.03
2024-04-07T10:03:59.439Z,38.81
2024-04-07T10:06:32.318Z,39.88
2024-04-07T10:09:04.070Z,40.23
2024-04-07T10:11:34.497Z,40.80
2024-04-07T10:14:15.585Z,40.44
2024-04-07T10:16:50.564Z,40.58
2024-04-07T10:19:26.064Z,40.84
2024-04-07T10:21:58.742Z,41.16
2024-04-07T10:24:29.168Z,40.93
2024-04-07T10:27:00.917Z,40.60
2024-04-07T10:29:31.949Z,40.28
2024-04-07T10:32:04.643Z,40.16
2024-04-07T10:34:35.387Z,39.71
2024-04-07T10:37:07.849Z,40.22
2024-04-07T10:39:38.281Z,39.62
2024-04-07T10:42:10.239Z,39.31
2024-04-07T10:44:40.776Z,39.35
2024-04-07T10:47:12.841Z,40.00
2024-04-07T10:49:44.497Z,40.67
2024-04-07T10:52:17.741Z,39.06
2024-04-07T10:54:48.209Z,39.37
2024-04-07T10:57:19.958Z,39.39
2024-04-07T10:59:52.596Z,38.43
2024-04-07T11:02:25.828Z,38.82
2024-04-07T11:04:56.555Z,38.79
2024-04-07T11:07:28.428Z,39.34
2024-04-07T11:10:02.947Z,39.57
2024-04-07T11:12:35.788Z,38.94
2024-04-07T11:15:18.292Z,38.72
2024-04-07T11:17:51.627Z,38.61
2024-04-07T11:20:22.169Z,38.17
2024-04-07T11:22:53.924Z,39.00
2024-04-07T11:25:24.786Z,39.16
2024-04-07T11:27:57.033Z,38.99
2024-04-07T11:30:36.399Z,39.65
2024-04-07T11:33:09.170Z,40.13
2024-04-07T11:35:46.439Z,40.03
2024-04-07T11:38:18.504Z,40.17
2024-04-07T11:40:52.105Z,40.22
2024-04-07T11:43:23.344Z,40.97
2024-04-07T11:45:53.867Z,40.32
2024-04-07T11:48:28.266Z,40.61
2024-04-07T11:50:58.926Z,40.57
2024-04-07T11:53:32.697Z,40.16
2024-04-07T11:56:07.944Z,39.15
2024-04-07T11:58:38.598Z,39.84
2024-04-07T12:01:11.187Z,38.99
2024-04-07T12:03:43.396Z,38.36
2024-04-07T12:06:16.633Z,37.72
2024-04-07T12:08:47.164Z,37.18
2024-04-07T12:11:19.119Z,35.80
2024-04-07T12:13:50.801Z,35.53
2024-04-07T12:16:22.544Z,34.96
2024-04-07T12:18:53.062Z,34.97
2024-04-07T12:21:25.138Z,35.39
2024-04-07T12:23:55.559Z,34.99
2024-04-07T12:26:27.594Z,34.75
2024-04-07T12:28:58.785Z,34.70
2024-04-07T12:31:30.622Z,35.11
2024-04-07T12:34:01.198Z,34.33
2024-04-07T12:36:33.744Z,33.53
2024-04-07T12:39:09.767Z,33.18
2024-04-07T12:41:41.950Z,33.38
2024-04-07T12:44:12.985Z,33.22
2024-04-07T12:46:46.006Z,32.84
2024-04-07T12:49:21.637Z,33.09
2024-04-07T12:51:53.485Z,33.58
2024-04-07T12:54:23.930Z,33.95
2024-04-07T12:56:55.873Z,33.65
2024-04-07T12:59:26.406Z,34.10
2024-04-07T13:01:58.266Z,34.37
2024-04-07T13:04:28.894Z,33.06
2024-04-07T13:07:02.052Z,32.63
2024-04-07T13:09:32.609Z,32.59
2024-04-07T13:12:04.996Z,32.59
2024-04-07T13:14:36.565Z,32.76
2024-04-07T13:17:08.320Z,33.24
2024-04-07T13:19:39.361Z,32.61
2024-04-07T13:22:11.605Z,32.92
2024-04-07T13:24:45.109Z,33.32
2024-04-07T13:27:18.715Z,32.99
2024-04-07T13:29:49.248Z,32.52
2024-04-07T13:32:20.987Z,32.16
2024-04-07T13:34:51.833Z,32.57
2024-04-07T13:37:23.792Z,32.68
2024-04-07T13:39:55.630Z,32.34
2024-04-07T13:42:27.511Z,32.57
2024-04-07T13:44:59.513Z,33.16
2024-04-07T13:47:31.490Z,33.80
2024-04-07T13:50:02.286Z,33.78
2024-04-07T13:52:35.816Z,33.24
2024-04-07T13:55:07.069Z,32.79
2024-04-07T13:57:38.995Z,32.68
2024-04-07T14:00:11.857Z,32.49
2024-04-07T14:02:44.643Z,32.71
2024-04-07T14:05:15.310Z,32.21
2024-04-07T14:07:47.127Z,31.54
2024-04-07T14:10:17.657Z,32.03
2024-04-07T14:12:49.322Z,32.25
2024-04-07T14:15:19.963Z,32.24
2024-04-07T14:17:51.801Z,32.16
2024-04-07T14:20:22.338Z,32.16
2024-04-07T14:22:54.194Z,32.58
2024-04-07T14:25:25.024Z,32.89
2024-04-07T14:27:57.199Z,33.36
2024-04-07T14:30:27.729Z,32.87
2024-04-07T14:32:59.471Z,32.71
2024-04-07T14:35:30.519Z,33.34
2024-04-07T14:38:02.079Z,33.43
2024-04-07T14:40:32.829Z,33.40
2024-04-07T14:43:05.687Z,33.27
2024-04-07T14:45:36.443Z,33.10
2024-04-07T14:48:14.954Z,33.44
2024-04-07T14:50:46.791Z,33.87
2024-04-07T14:53:17.824Z,33.86
2024-04-07T14:55:59.118Z,34.21
2024-04-07T14:58:33.546Z,34.86
2024-04-07T15:01:07.761Z,35.03
2024-04-07T15:03:39.445Z,34.79
2024-04-07T15:06:12.095Z,34.70
2024-04-07T15:08:42.516Z,35.10
2024-04-07T15:11:14.754Z,35.71
2024-04-07T15:13:45.220Z,35.63
2024-04-07T15:16:17.177Z,35.97
2024-04-07T15:18:47.913Z,36.52
2024-04-07T15:21:19.881Z,36.07
2024-04-07T15:23:50.303Z,35.87
2024-04-07T15:26:22.376Z,36.33
2024-04-07T15:28:54.897Z,36.48
2024-04-07T15:31:26.701Z,37.14
2024-04-07T15:34:02.279Z,37.69
2024-04-07T15:36:36.146Z,37.87
2024-04-07T15:39:07.500Z,37.49
2024-04-07T15:41:41.218Z,37.86
2024-04-07T15:44:12.272Z,38.34
2024-04-07T15:46:44.006Z,38.34
2024-04-07T15:49:14.729Z,38.32
2024-04-07T15:51:47.828Z,38.75
2024-04-07T15:54:18.455Z,38.88
2024-04-07T15:56:50.221Z,39.26
2024-04-07T15:59:21.741Z,39.56
2024-04-07T16:01:53.743Z,39.61
2024-04-07T16:04:24.659Z,40.05
2024-04-07T16:06:57.678Z,40.23
2024-04-07T16:09:28.166Z,40.38
2024-04-07T16:11:59.950Z,40.54
2024-04-07T16:14:30.994Z,40.94
2024-04-07T16:17:03.466Z,41.21
2024-04-07T16:19:35.395Z,41.42
2024-04-07T16:22:07.274Z,41.63
2024-04-07T16:24:38.314Z,41.98
2024-04-07T16:27:10.475Z,42.12
2024-04-07T16:29:41.016Z,42.26
2024-04-07T16:32:12.793Z,42.26
2024-04-07T16:34:43.509Z,42.49
2024-04-07T16:37:15.473Z,42.58
2024-04-07T16:39:48.965Z,42.85
2024-04-07T16:42:20.622Z,42.95
2024-04-07T16:44:54.343Z,43.24
2024-04-07T16:47:26.178Z,43.48
2024-04-07T16:49:57.428Z,43.94
2024-04-07T16:52:30.022Z,44.07
2024-04-07T16:55:06.121Z,44.15
2024-04-07T16:57:38.320Z,44.68
2024-04-07T17:00:09.787Z,44.79
2024-04-07T17:02:41.647Z,45.18
2024-04-07T17:05:12.549Z,45.41
2024-04-07T17:07:47.195Z,45.71
2024-04-07T17:10:20.195Z,46.19
2024-04-07T17:12:50.710Z,46.41
2024-04-07T17:15:22.894Z,46.60
2024-04-07T17:17:53.508Z,47.11
2024-04-07T17:20:25.271Z,47.46
2024-04-07T17:22:55.594Z,47.74
2024-04-07T17:25:27.459Z,48.03
2024-04-07T17:27:57.992Z,48.45
2024-04-07T17:30:29.858Z,48.63
2024-04-07T17:33:00.470Z,48.72
2024-04-07T17:35:32.329Z,48.96
2024-04-07T17:38:02.975Z,49.09
2024-04-07T17:40:35.130Z,49.50
2024-04-07T17:43:05.562Z,49.64
2024-04-07T17:45:43.587Z,49.94
2024-04-07T17:48:15.424Z,50.12
2024-04-07T17:50:46.264Z,50.27
2024-04-07T17:53:19.748Z,50.14
2024-04-07T17:55:54.360Z,50.26
2024-04-07T17:58:26.648Z,50.11
2024-04-07T18:00:58.966Z,50.05
2024-04-07T18:03:30.787Z,49.86
2024-04-07T18:06:01.417Z,49.79
2024-04-07T18:08:33.594Z,49.57
2024-04-07T18:11:04.514Z,49.56
2024-04-07T18:13:36.276Z,49.46
2024-04-07T18:16:06.917Z,49.44
2024-04-07T18:18:39.085Z,49.56
2024-04-07T18:21:09.603Z,49.79
2024-04-07T18:23:41.676Z,49.88
2024-04-07T18:26:12.297Z,49.86
2024-04-07T18:28:44.054Z,50.04
2024-04-07T18:31:18.471Z,50.18
2024-04-07T18:33:50.438Z,50.25
2024-04-07T18:36:23.621Z,50.25
2024-04-07T18:38:55.695Z,50.37
2024-04-07T18:41:26.246Z,50.54
2024-04-07T18:43:59.625Z,50.74
2024-04-07T18:46:30.155Z,50.65
2024-04-07T18:49:02.105Z,50.77
2024-04-07T18:51:32.527Z,50.60
2024-04-07T18:54:04.596Z,50.69
2024-04-07T18:56:35.223Z,50.70
2024-04-07T18:59:07.204Z,50.91
2024-04-07T19:01:37.816Z,50.88
2024-04-07T19:04:09.789Z,50.94
2024-04-07T19:06:41.123Z,50.90
2024-04-07T19:09:13.801Z,51.09
2024-04-07T19:11:44.227Z,51.01
2024-04-07T19:14:16.214Z,51.09
2024-04-07T19:16:46.834Z,51.29
2024-04-07T19:19:18.580Z,51.32
2024-04-07T19:21:49.433Z,51.52
2024-04-07T19:24:22.011Z,51.71
2024-04-07T19:26:52.541Z,51.90
2024-04-07T19:29:24.872Z,51.89
2024-04-07T19:31:55.549Z,51.98
2024-04-07T19:34:27.700Z,52.02
2024-04-07T19:36:58.336Z,52.20
2024-04-07T19:39:30.186Z,52.39
2024-04-07T19:42:00.627Z,52.74
2024-04-07T19:44:33.822Z,52.95
2024-04-07T19:47:05.256Z,53.26
2024-04-07T19:49:37.015Z,53.36
2024-04-07T19:52:07.437Z,53.56
2024-04-07T19:54:39.194Z,53.59
2024-04-07T19:57:09.625Z,53.91
2024-04-07T19:59:41.384Z,54.07
2024-04-07T20:02:12.559Z,54.11
2024-04-07T20:04:44.282Z,54.37
2024-04-07T20:07:14.805Z,54.26
2024-04-07T20:09:47.184Z,54.59
2024-04-07T20:12:17.712Z,54.71
2024-04-07T20:14:49.673Z,54.82
2024-04-07T20:17:20.836Z,55.02
2024-04-07T20:19:52.566Z,55.07
2024-04-07T20:22:23.093Z,55.18
2024-04-07T20:24:55.032Z,55.29
2024-04-07T20:27:25.600Z,55.30
2024-04-07T20:29:57.648Z,55.20
2024-04-07T20:32:28.253Z,55.26
2024-04-07T20:35:00.049Z,55.29
2024-04-07T20:37:30.575Z,55.27
2024-04-07T20:40:03.056Z,55.10
2024-04-07T20:42:33.573Z,55.20
2024-04-07T20:45:06.370Z,55.15
2024-04-07T20:47:37.017Z,55.27
2024-04-07T20:50:10.284Z,55.32
2024-04-07T20:52:42.417Z,55.32
2024-04-07T20:55:14.317Z,55.40
2024-04-07T20:57:44.729Z,55.34
2024-04-07T21:00:21.366Z,55.50
2024-04-07T21:02:55.932Z,55.57
2024-04-07T21:05:26.622Z,55.62
2024-04-07T21:07:58.314Z,55.65
2024-04-07T21:10:28.746Z,55.77
2024-04-07T21:13:01.223Z,55.86
2024-04-07T21:15:31.643Z,55.93
2024-04-07T21:18:03.090Z,56.05
2024-04-07T21:20:35.534Z,56.13
2024-04-07T21:23:07.326Z,56.29
2024-04-07T21:25:38.158Z,56.41
2024-04-07T21:28:09.733Z,56.53
2024-04-07T21:30:40.446Z,56.65
2024-04-07T21:33:12.208Z,56.79
2024-04-07T21:35:42.638Z,56.85
2024-04-07T21:38:14.383Z,56.74
2024-04-07T21:40:44.812Z,56.81
2024-04-07T21:43:16.487Z,56.91
2024-04-07T21:45:47.820Z,56.76
2024-04-07T21:48:20.086Z,57.08
2024-04-07T21:50:50.613Z,56.98
2024-04-07T21:53:22.586Z,57.09
2024-04-07T21:55:54.132Z,56.98
2024-04-07T21:58:26.199Z,56.98
2024-04-07T22:00:56.639Z,56.77
2024-04-07T22:03:28.379Z,56.92
2024-04-07T22:06:00.260Z,56.86
2024-04-07T22:08:32.050Z,56.79
2024-04-07T22:11:02.838Z,56.84
2024-04-07T22:13:34.479Z,56.84
2024-04-07T22:16:05.234Z,56.83
2024-04-07T22:18:40.053Z,56.79
2024-04-07T22:21:13.138Z,56.81
2024-04-07T22:23:43.674Z,57.02
2024-04-07T22:26:16.000Z,56.92
2024-04-07T22:28:47.146Z,56.97
2024-04-07T22:31:18.741Z,56.94
2024-04-07T22:33:51.419Z,57.01
2024-04-07T22:36:23.987Z,57.12
2024-04-07T22:38:54.417Z,57.13
2024-04-07T22:41:26.096Z,57.34
2024-04-07T22:43:58.859Z,57.45
2024-04-07T22:46:31.322Z,57.45
2024-04-07T22:49:01.761Z,57.74
2024-04-07T22:51:34.334Z,57.86
2024-04-07T22:54:04.759Z,57.98
2024-04-07T22:56:36.423Z,58.33
2024-04-07T22:59:06.837Z,58.43
2024-04-07T23:01:38.597Z,58.46
2024-04-07T23:04:09.328Z,58.65
2024-04-07T23:06:41.085Z,58.62
2024-04-07T23:09:12.642Z,58.93
2024-04-07T23:11:44.302Z,59.09
2024-04-07T23:14:15.028Z,59.14
2024-04-07T23:16:46.777Z,59.08
2024-04-07T23:19:18.472Z,59.26
2024-04-07T23:21:50.096Z,59.35
2024-04-07T23:24:20.615Z,59.34
2024-04-07T23:26:52.689Z,59.20
2024-04-07T23:29:24.083Z,59.29
2024-04-07T23:31:57.017Z,59.25
2024-04-07T23:34:27.654Z,59.05
2024-04-07T23:36:59.316Z,59.15
2024-04-07T23:39:29.624Z,59.11
2024-04-07T23:42:01.592Z,59.06
2024-04-07T23:44:31.932Z,58.92
2024-04-07T23:47:03.786Z,58.96
2024-04-07T23:49:34.728Z,58.89
2024-04-07T23:52:06.993Z,58.68
2024-04-07T23:54:38.132Z,58.67
2024-04-07T23:57:09.792Z,58.68
2024-04-07T23:59:40.718Z,58.64
